createdAt,value
2023-04-30T00:03:36.874Z,10.60
2023-04-30T00:08:52.308Z,10.60
2023-04-30T00:14:00.814Z,11.60
2023-04-30T00:19:17.798Z,10.80
2023-04-30T00:24:25.428Z,10.30
2023-04-30T00:29:33.370Z,10.30
2023-04-30T00:34:43.605Z,10.40
2023-04-30T00:40:08.524Z,10.30
2023-04-30T00:45:17.631Z,9.90
2023-04-30T00:50:25.666Z,10.60
2023-04-30T00:55:30.165Z,11.10
2023-04-30T01:06:12.707Z,11.70
2023-04-30T01:11:26.337Z,10.40
2023-04-30T01:16:49.390Z,12.00
2023-04-30T01:22:05.391Z,12.00
2023-04-30T01:27:21.289Z,10.40
2023-04-30T01:33:21.349Z,10.30
2023-04-30T01:38:43.015Z,8.70
2023-04-30T01:44:14.336Z,10.90
2023-04-30T01:49:31.017Z,9.80
2023-04-30T01:54:52.404Z,10.30
2023-04-30T02:00:07.643Z,10.50
2023-04-30T02:05:20.533Z,10.30
2023-04-30T02:10:36.890Z,10.30
2023-04-30T02:15:56.942Z,10.20
2023-04-30T02:21:14.911Z,10.00
2023-04-30T02:26:29.368Z,10.20
2023-04-30T02:32:06.401Z,10.20
2023-04-30T02:37:13.271Z,10.10
2023-04-30T02:42:18.483Z,10.10
2023-04-30T02:47:22.344Z,10.10
2023-04-30T02:52:26.302Z,10.20
2023-04-30T02:57:35.311Z,10.10
2023-04-30T03:02:39.127Z,10.10
2023-04-30T03:07:43.150Z,10.00
2023-04-30T03:12:49.284Z,10.00
2023-04-30T03:17:55.808Z,10.00
2023-04-30T03:23:00.404Z,10.00
2023-04-30T03:28:08.154Z,10.00
2023-04-30T03:33:12.676Z,9.90
2023-04-30T03:38:16.973Z,9.90
2023-04-30T03:43:23.780Z,9.80
2023-04-30T03:48:33.743Z,9.80
2023-04-30T03:53:39.223Z,9.80
2023-04-30T03:58:48.606Z,10.00
2023-04-30T04:03:54.717Z,9.80
2023-04-30T04:08:59.395Z,9.80
2023-04-30T04:14:09.774Z,9.80
2023-04-30T04:19:47.296Z,9.80
2023-04-30T04:25:02.101Z,9.80
2023-04-30T04:30:10.874Z,9.80
2023-04-30T04:35:16.541Z,9.80
2023-04-30T04:40:21.047Z,9.80
2023-04-30T04:45:29.403Z,9.90
2023-04-30T04:50:34.771Z,9.90
2023-04-30T04:55:42.256Z,9.90
2023-04-30T05:00:53.072Z,10.10
2023-04-30T05:06:15.331Z,10.20
2023-04-30T05:11:53.202Z,10.10
2023-04-30T05:17:06.065Z,10.20
2023-04-30T05:22:10.086Z,10.20
2023-04-30T05:28:01.484Z,10.30
2023-04-30T05:33:48.934Z,10.40
2023-04-30T05:39:06.118Z,10.60
2023-04-30T05:44:18.283Z,10.70
2023-04-30T05:50:39.870Z,10.80
2023-04-30T05:55:45.632Z,11.00
2023-04-30T06:00:53.519Z,11.20
2023-04-30T06:05:57.923Z,11.30
2023-04-30T06:11:35.355Z,11.50
2023-04-30T06:16:42.898Z,11.60
2023-04-30T06:21:49.571Z,11.60
2023-04-30T06:26:56.648Z,11.70
2023-04-30T06:32:00.378Z,12.00
2023-04-30T06:37:05.042Z,12.40
2023-04-30T06:42:36.840Z,12.90
2023-04-30T06:48:21.183Z,13.20
2023-04-30T06:53:33.808Z,13.60
2023-04-30T06:59:08.352Z,13.90
2023-04-30T07:04:13.460Z,14.40
2023-04-30T07:09:23.109Z,14.60
2023-04-30T07:14:37.640Z,14.40
2023-04-30T07:19:46.392Z,14.90
2023-04-30T07:24:50.878Z,15.20
2023-04-30T07:29:58.986Z,15.40
2023-04-30T07:35:03.118Z,15.70
2023-04-30T07:40:21.922Z,16.20
2023-04-30T07:45:34.923Z,16.90
2023-04-30T07:50:40.151Z,17.00
2023-04-30T07:55:48.899Z,17.20
2023-04-30T08:00:58.264Z,17.10
2023-04-30T08:06:07.369Z,16.90
2023-04-30T08:11:13.578Z,16.30
2023-04-30T08:16:22.904Z,16.30
2023-04-30T08:21:28.998Z,17.60
2023-04-30T08:26:34.373Z,18.70
2023-04-30T08:31:39.708Z,19.10
2023-04-30T08:36:50.188Z,19.00
2023-04-30T08:41:58.319Z,18.50
2023-04-30T08:47:07.146Z,19.00
2023-04-30T08:52:12.808Z,19.60
2023-04-30T08:57:16.997Z,18.80
2023-04-30T09:02:27.172Z,19.20
2023-04-30T09:08:05.343Z,18.80
2023-04-30T09:13:12.707Z,20.00
2023-04-30T09:18:32.680Z,21.30
2023-04-30T09:23:57.997Z,22.40
2023-04-30T09:29:34.663Z,21.60
2023-04-30T09:34:41.765Z,22.00
2023-04-30T09:39:51.145Z,21.70
2023-04-30T09:44:56.938Z,21.10
2023-04-30T09:51:10.298Z,20.80
2023-04-30T09:56:47.180Z,21.00
2023-04-30T10:01:58.009Z,22.20
2023-04-30T10:07:06.184Z,22.40
2023-04-30T10:12:15.115Z,22.20
2023-04-30T10:17:20.311Z,22.50
2023-04-30T10:23:04.887Z,21.80
2023-04-30T10:28:58.855Z,21.40
2023-04-30T10:34:23.318Z,22.60
2023-04-30T10:39:29.644Z,23.90
2023-04-30T10:44:34.736Z,22.60
2023-04-30T10:49:54.275Z,22.40
2023-04-30T10:55:14.380Z,22.60
2023-04-30T11:00:40.364Z,22.40
2023-04-30T11:05:48.199Z,23.00
2023-04-30T11:11:03.159Z,22.90
2023-04-30T11:16:58.187Z,20.60
2023-04-30T11:22:18.461Z,21.70
2023-04-30T11:27:25.078Z,21.80
2023-04-30T11:32:35.918Z,22.60
2023-04-30T11:37:41.646Z,23.10
2023-04-30T11:42:54.731Z,23.10
2023-04-30T11:48:01.377Z,23.50
2023-04-30T11:53:13.046Z,24.10
2023-04-30T11:58:25.902Z,24.90
2023-04-30T12:03:34.880Z,24.70
2023-04-30T12:08:42.659Z,24.70
2023-04-30T12:13:57.174Z,24.00
2023-04-30T12:19:04.005Z,24.60
2023-04-30T12:24:33.310Z,24.40
2023-04-30T12:29:45.208Z,26.00
2023-04-30T12:34:49.210Z,24.70
2023-04-30T12:39:57.557Z,24.60
2023-04-30T12:45:11.106Z,23.90
2023-04-30T12:50:16.913Z,23.70
2023-04-30T12:55:23.312Z,24.30
2023-04-30T13:00:29.718Z,25.00
2023-04-30T13:05:34.908Z,24.70
2023-04-30T13:10:42.456Z,24.60
2023-04-30T13:15:51.950Z,25.10
2023-04-30T13:20:57.964Z,24.90
2023-04-30T13:26:03.286Z,25.40
2023-04-30T13:31:11.327Z,24.80
2023-04-30T13:36:17.607Z,24.10
2023-04-30T13:41:22.677Z,25.10
2023-04-30T13:46:28.082Z,24.90
2023-04-30T13:51:37.160Z,25.10
2023-04-30T13:56:53.853Z,24.60
2023-04-30T14:02:02.454Z,25.60
2023-04-30T14:07:26.423Z,24.90
2023-04-30T14:12:32.601Z,24.50
2023-04-30T14:17:38.388Z,24.10
2023-04-30T14:22:42.657Z,24.60
2023-04-30T14:27:47.710Z,23.60
2023-04-30T14:32:55.450Z,24.10
2023-04-30T14:38:04.994Z,24.40
2023-04-30T14:43:21.876Z,25.30
2023-04-30T14:49:01.191Z,24.30
2023-04-30T14:54:17.979Z,24.40
2023-04-30T14:59:27.309Z,24.10
2023-04-30T15:05:01.170Z,24.40
2023-04-30T15:10:14.639Z,25.20
2023-04-30T15:15:19.135Z,25.20
2023-04-30T15:20:36.784Z,25.20
2023-04-30T15:25:46.237Z,25.30
2023-04-30T15:31:24.101Z,25.00
2023-04-30T15:36:33.005Z,24.50
2023-04-30T15:42:06.158Z,25.00
2023-04-30T15:47:46.879Z,25.50
2023-04-30T15:53:34.613Z,25.40
2023-04-30T15:58:39.822Z,24.60
2023-04-30T16:03:46.299Z,23.70
2023-04-30T16:09:22.686Z,23.70
2023-04-30T16:14:30.109Z,23.70
2023-04-30T16:19:46.122Z,24.40
2023-04-30T16:24:57.276Z,24.30
2023-04-30T16:30:08.965Z,24.30
2023-04-30T16:35:13.376Z,23.80
2023-04-30T16:40:37.452Z,22.30
2023-04-30T16:45:47.481Z,21.10
2023-04-30T16:50:53.406Z,20.50
2023-04-30T16:56:11.469Z,20.30
2023-04-30T17:01:20.048Z,19.80
2023-04-30T17:06:24.135Z,19.50
2023-04-30T17:11:38.635Z,19.50
2023-04-30T17:16:47.160Z,19.50
2023-04-30T17:22:01.232Z,19.30
2023-04-30T17:27:11.843Z,19.20
2023-04-30T17:32:18.661Z,18.90
2023-04-30T17:37:33.800Z,18.90
2023-04-30T17:42:43.169Z,18.70
2023-04-30T17:47:54.418Z,18.90
2023-04-30T17:53:00.153Z,19.20
2023-04-30T17:58:10.203Z,19.20
2023-04-30T18:03:13.551Z,18.90
2023-04-30T18:08:17.853Z,18.60
2023-04-30T18:13:23.048Z,18.40
2023-04-30T18:18:26.687Z,18.20
2023-04-30T18:23:34.987Z,17.90
2023-04-30T18:28:40.366Z,17.50
2023-04-30T18:33:47.259Z,17.30
2023-04-30T18:38:52.935Z,17.20
2023-04-30T18:43:58.515Z,17.00
2023-04-30T18:49:12.356Z,17.00
2023-04-30T18:54:15.976Z,17.00
2023-04-30T18:59:22.301Z,16.80
2023-04-30T19:04:25.546Z,16.60
2023-04-30T19:09:31.597Z,16.20
2023-04-30T19:14:37.530Z,15.90
2023-04-30T19:19:41.088Z,15.40
2023-04-30T19:24:45.236Z,14.90
2023-04-30T19:29:51.643Z,14.70
2023-04-30T19:34:55.466Z,14.50
2023-04-30T19:39:58.899Z,14.40
2023-04-30T19:45:04.621Z,14.20
2023-04-30T19:50:09.908Z,14.00
2023-04-30T19:55:13.998Z,13.90
2023-04-30T20:00:24.188Z,13.90
2023-04-30T20:05:28.683Z,13.70
2023-04-30T20:10:31.844Z,13.50
2023-04-30T20:15:36.565Z,13.60
2023-04-30T20:20:39.864Z,13.40
2023-04-30T20:25:45.540Z,13.40
2023-04-30T20:30:50.631Z,13.60
2023-04-30T20:35:53.871Z,13.40
2023-04-30T20:40:58.186Z,13.20
2023-04-30T20:46:03.392Z,13.10
2023-04-30T20:51:07.015Z,12.80
2023-04-30T20:56:12.416Z,12.80
2023-04-30T21:01:17.919Z,12.90
2023-04-30T21:06:22.311Z,12.70
2023-04-30T21:11:26.208Z,12.50
2023-04-30T21:16:32.466Z,12.30
2023-04-30T21:21:36.478Z,12.10
2023-04-30T21:26:40.519Z,12.10
2023-04-30T21:31:47.689Z,12.20
2023-04-30T21:36:52.560Z,12.20
2023-04-30T21:41:56.036Z,12.00
2023-04-30T21:47:02.166Z,12.20
2023-04-30T21:52:08.568Z,11.90
2023-04-30T21:57:12.630Z,11.70
2023-04-30T22:02:23.894Z,11.70
2023-04-30T22:07:28.445Z,11.70
2023-04-30T22:12:32.931Z,11.60
2023-04-30T22:17:37.930Z,11.50
2023-04-30T22:22:41.820Z,11.70
2023-04-30T22:27:47.668Z,11.50
2023-04-30T22:32:57.192Z,11.40
2023-04-30T22:38:02.087Z,11.60
2023-04-30T22:43:08.417Z,11.40
2023-04-30T22:48:13.986Z,11.30
2023-04-30T22:53:17.738Z,11.20
2023-04-30T22:58:21.973Z,11.10
2023-04-30T23:03:27.840Z,11.00
2023-04-30T23:08:32.564Z,10.90
2023-04-30T23:13:36.374Z,10.70
2023-04-30T23:18:41.318Z,10.70
2023-04-30T23:23:45.072Z,10.80
2023-04-30T23:28:48.522Z,10.60
2023-04-30T23:33:55.336Z,10.60
2023-04-30T23:38:59.156Z,10.50
2023-04-30T23:44:03.010Z,10.30
2023-04-30T23:49:10.054Z,10.30
2023-04-30T23:54:13.955Z,10.10
2023-04-30T23:59:17.304Z,10.00
